Latest Weather Observations for Scotts Peak

IDT60801

Issued at 6:35 pm EST Thursday 2 October 2014 (issued every 30 minutes, with the page automatically refreshed every 10 minutes)

About weather observations | Map of weather stations | Latest weather observations for TAS | Other Formats
Station Details ID: 097083 Name: SCOTTS PEAK DAM Lat: -43.04 Lon: 146.27 Height: 408.0 m
Data from the previous 72 hours. | See also: Recent months at Scotts Peak
Date/Time
EST
Temp
°C
App
Temp
°C
Dew
Point
Rel
Hum
%
Delta-T
°C
Wind Press
QNH
hPa
Press
MSL
hPa
Rain
since 9 am
mm
Dir
 
Spd
km/h
Gust
km/h
Spd
kts
Gust
kts
02/06:30pm 5.9 -0.8 1.4 73 1.8 W 26 41 14 22 - - 3.4
02/06:04pm 5.9 -1.9 1.6 74 1.8 W 32 43 17 23 - - 3.4
02/06:00pm 6.1 2.6 1.4 72 1.9 W 9 11 5 6 - - 3.4
02/05:30pm 6.0 -1.1 3.5 84 1.1 WSW 30 54 16 29 - - 3.4
02/05:00pm 6.1 -0.9 4.1 87 0.9 W 30 50 16 27 - - 3.4
02/04:30pm 7.2 0.5 3.6 78 1.6 W 28 46 15 25 - - 3.4
02/04:05pm 7.7 0.2 3.2 73 2.0 W 32 50 17 27 - - 3.4
02/04:00pm 7.9 0.3 3.8 75 1.8 W 33 50 18 27 - - 3.4
02/03:54pm 7.5 0.0 3.4 75 1.8 W 32 50 17 27 - - 3.4
02/03:30pm 7.7 1.4 3.6 75 1.8 W 26 44 14 24 - - 3.4
02/03:00pm 7.7 0.3 3.9 77 1.7 W 32 59 17 32 - - 3.4
02/02:30pm 8.8 0.9 4.2 73 2.1 W 35 63 19 34 - - 3.4
02/02:00pm 7.6 -0.3 4.6 81 1.3 W 35 65 19 35 - - 3.4
02/01:30pm 7.2 -0.5 5.5 89 0.8 WSW 35 59 19 32 - - 3.4
02/01:17pm 7.2 0.4 5.3 88 0.9 WSW 30 70 16 38 - - 3.2
02/01:01pm 7.8 1.0 6.9 94 0.4 W 32 50 17 27 - - 3.2
02/01:00pm 8.0 2.4 7.2 95 0.4 W 26 39 14 21 - - 3.2
02/12:30pm 8.0 1.1 7.2 95 0.4 WSW 33 56 18 30 - - 2.4
02/12:21pm 8.2 2.3 7.3 94 0.4 WSW 28 46 15 25 - - 2.4
02/12:19pm 8.1 2.1 7.0 93 0.5 SSW 28 41 15 22 - - 2.2
02/12:00pm 9.0 0.7 7.6 91 0.7 W 41 59 22 32 - - 1.4
02/11:30am 9.5 1.0 7.1 85 1.2 W 41 59 22 32 - - 1.2
02/11:00am 9.0 0.5 7.1 88 0.9 WNW 41 61 22 33 - - 1.2
02/10:30am 9.3 1.0 7.7 90 0.8 W 41 59 22 32 - - 1.2
02/10:00am 8.2 1.4 6.7 90 0.7 W 32 54 17 29 - - 1.2
02/09:30am 8.2 -0.3 7.0 92 0.6 W 41 70 22 38 - - 0.8
02/09:07am 8.3 0.2 7.2 93 0.5 W 39 57 21 31 - - 0.0
02/09:00am 8.4 0.0 7.2 92 0.6 W 41 57 22 31 - - 3.2
02/08:53am 8.3 0.6 7.2 93 0.5 W 37 56 20 30 - - 3.0
02/08:30am 8.2 0.5 7.1 93 0.5 WNW 37 50 20 27 - - 3.0
02/08:09am 8.1 -0.8 7.0 93 0.5 W 43 70 23 38 - - 3.0
02/08:00am 8.0 0.3 6.9 93 0.5 WNW 37 54 20 29 - - 3.0
02/07:57am 8.0 0.6 6.9 93 0.5 WNW 35 54 19 29 - - 3.0
02/07:30am 7.7 -2.5 6.8 94 0.4 WNW 50 61 27 33 - - 2.8
02/07:08am 7.6 -1.9 6.7 94 0.4 WNW 46 65 25 35 - - 2.8
02/07:00am 7.6 -1.0 6.4 92 0.6 WNW 41 50 22 27 - - 2.8
02/06:30am 7.3 -1.4 5.9 91 0.6 WNW 41 54 22 29 - - 2.8
02/06:00am 7.3 -2.3 6.2 93 0.5 W 46 72 25 39 - - 2.8
02/05:30am 7.4 -3.7 6.5 94 0.4 WNW 54 74 29 40 - - 2.6
02/05:24am 7.3 -2.6 6.4 94 0.4 WNW 48 67 26 36 - - 2.6
02/05:00am 7.3 -4.2 6.4 94 0.4 WNW 56 72 30 39 - - 2.6
02/04:45am 7.4 -2.9 6.5 94 0.4 WNW 50 69 27 37 - - 2.4
02/04:30am 7.4 -2.9 6.7 95 0.3 WNW 50 65 27 35 - - 2.4
02/04:06am 7.6 -2.7 6.7 94 0.4 WNW 50 69 27 37 - - 2.4
02/04:00am 7.6 -2.3 6.7 94 0.4 WNW 48 65 26 35 - - 2.4
02/03:30am 7.6 -4.8 6.7 94 0.4 WNW 61 80 33 43 - - 2.2
02/03:01am 7.4 -3.3 6.3 93 0.5 WNW 52 70 28 38 - - 2.2
02/03:00am 7.5 -3.6 6.4 93 0.5 WNW 54 70 29 38 - - 2.2
02/02:30am 7.5 -3.5 6.6 94 0.4 WNW 54 67 29 36 - - 2.2
02/02:00am 7.9 -4.8 6.8 93 0.5 WNW 63 85 34 46 - - 2.2
02/01:47am 7.9 -2.9 7.5 97 0.2 WNW 54 74 29 40 - - 2.2
02/01:30am 7.6 -1.8 7.2 97 0.2 NW 46 57 25 31 - - 2.0
02/01:00am 7.7 -2.9 6.8 94 0.4 WNW 52 70 28 38 - - 2.0
02/12:30am 7.6 -5.4 7.3 98 0.1 NW 65 83 35 45 - - 2.0
02/12:10am 7.8 -2.3 7.5 98 0.1 NW 50 69 27 37 - - 1.8
02/12:00am 7.7 -1.6 7.4 98 0.1 NW 46 57 25 31 - - 1.8
 
Date/Time
EST
Temp
°C
App
Temp
°C
Dew
Point
Rel
Hum
%
Delta-T
°C
Wind Press
QNH
hPa
Press
MSL
hPa
Rain
since 9 am
mm
Dir
 
Spd
km/h
Gust
km/h
Spd
kts
Gust
kts
01/11:38pm 7.7 -3.2 7.1 96 0.3 WNW 54 72 29 39 - - 1.6
01/11:30pm 7.8 -3.1 7.2 96 0.3 NW 54 69 29 37 - - 1.6
01/11:08pm 7.7 -3.2 7.3 97 0.2 NW 54 74 29 40 - - 1.6
01/11:00pm 7.7 -2.0 7.3 97 0.2 NW 48 61 26 33 - - 1.6
01/10:39pm 7.8 -3.8 6.7 93 0.5 WNW 57 76 31 41 - - 1.6
01/10:30pm 8.0 -4.8 6.5 90 0.7 WNW 63 78 34 42 - - 1.6
01/10:00pm 7.9 -2.9 7.5 97 0.2 NW 54 72 29 39 - - 1.6
01/09:37pm 8.0 -3.3 7.1 94 0.4 WNW 56 74 30 40 - - 1.4
01/09:30pm 7.9 -3.6 7.0 94 0.4 WNW 57 74 31 40 - - 1.4
01/09:03pm 7.8 -2.7 7.4 97 0.2 WNW 52 76 28 41 - - 1.4
01/09:00pm 7.8 -2.7 7.5 98 0.1 WNW 52 63 28 34 - - 1.4
01/08:56pm 7.8 -3.1 7.4 97 0.2 WNW 54 72 29 39 - - 1.4
01/08:30pm 7.7 -2.8 7.4 98 0.1 NW 52 65 28 35 - - 1.2
01/08:00pm 7.7 -1.7 7.3 97 0.2 WNW 46 63 25 34 - - 1.2
01/07:34pm 7.6 -2.5 7.2 97 0.2 WNW 50 69 27 37 - - 1.0
01/07:30pm 7.5 -3.1 7.1 97 0.2 NW 52 69 28 37 - - 1.0
01/07:04pm 7.3 -3.3 6.9 97 0.2 NW 52 70 28 38 - - 1.0
01/07:00pm 7.3 -3.7 6.9 97 0.2 NW 54 70 29 38 - - 1.0
01/06:48pm 7.2 -3.0 6.8 97 0.2 NW 50 70 27 38 - - 1.0
01/06:30pm 7.1 -3.2 6.7 97 0.2 NW 50 65 27 35 - - 0.8
01/06:26pm 7.0 -2.5 6.6 97 0.2 NW 46 65 25 35 - - 0.8
01/06:00pm 6.8 -2.8 6.2 96 0.3 NW 46 59 25 32 - - 0.8
01/05:30pm 6.8 -2.5 5.7 93 0.5 NW 44 59 24 32 - - 0.8
01/05:00pm 7.2 -2.1 5.2 87 0.9 NW 43 54 23 29 - - 0.8
01/04:37pm 7.6 -1.2 3.5 75 1.8 WNW 39 57 21 31 - - 0.8
01/04:30pm 7.7 -1.6 3.0 72 2.0 WNW 41 54 22 29 - - 0.8
01/04:00pm 7.9 -2.3 3.4 73 2.0 WNW 46 57 25 31 - - 0.8
01/03:30pm 8.1 -1.5 3.6 73 2.0 WNW 43 56 23 30 - - 0.8
01/03:00pm 8.1 -0.8 3.0 70 2.2 WNW 39 57 21 31 - - 0.8
01/02:30pm 8.4 -2.3 2.6 67 2.5 WNW 48 67 26 36 - - 0.8
01/02:15pm 8.7 -3.6 1.8 62 2.9 WNW 56 67 30 36 - - 0.8
01/02:04pm 9.5 1.2 4.1 69 2.4 WNW 37 56 20 30 - - 0.8
01/02:00pm 9.9 2.3 5.7 75 2.0 WNW 35 50 19 27 - - 0.8
01/01:38pm 6.9 -3.2 4.0 82 1.3 WNW 46 65 25 35 - - 0.8
01/01:30pm 8.3 -2.5 3.9 74 2.0 WNW 50 65 27 35 - - 0.8
01/01:06pm 7.5 -0.3 5.0 84 1.1 WNW 35 57 19 31 - - 0.6
01/01:00pm 7.6 0.2 5.2 85 1.1 W 33 44 18 24 - - 0.6
01/12:30pm 6.6 -2.9 4.9 89 0.8 W 44 63 24 34 - - 0.6
01/12:00pm 9.1 -0.5 3.5 68 2.5 WNW 43 59 23 32 - - 0.2
01/11:45am 8.1 -1.9 4.5 78 1.6 NW 46 57 25 31 - - 0.2
01/11:31am 7.6 -1.5 1.7 66 2.5 W 39 57 21 31 - - 0.2
01/11:30am 7.7 -1.5 1.5 65 2.6 W 39 56 21 30 - - 0.2
01/11:01am 7.6 -2.1 3.1 73 1.9 WNW 43 61 23 33 - - 0.2
01/11:00am 7.8 -1.6 4.6 80 1.4 WNW 43 56 23 30 - - 0.2
01/10:30am 5.5 -4.2 2.7 82 1.2 WNW 43 67 23 36 - - 0.2
01/10:29am 6.0 -3.3 2.8 80 1.4 WNW 41 67 22 36 - - 0.2
01/10:00am 6.0 -2.7 4.3 89 0.7 WNW 39 54 21 29 - - 0.2
01/09:30am 5.9 -2.1 3.7 86 1.0 WNW 35 46 19 25 - - 0.0
01/09:00am 6.5 -0.3 5.1 91 0.6 WNW 30 44 16 24 - - 31.8
01/08:38am 4.7 -2.6 2.7 87 0.8 WNW 30 50 16 27 - - 31.8
01/08:30am 5.0 -1.8 3.0 87 0.8 WNW 28 39 15 21 - - 31.8
01/08:15am 4.6 -5.8 1.8 82 1.1 W 46 67 25 36 - - 31.8
01/08:00am 5.2 0.0 3.4 88 0.8 WNW 20 32 11 17 - - 31.8
01/07:30am 3.4 -0.3 2.1 91 0.5 SW 11 19 6 10 - - 31.8
01/07:04am 4.1 -2.8 2.3 88 0.7 W 28 50 15 27 - - 30.8
01/07:00am 4.8 -0.6 2.5 85 1.0 W 20 35 11 19 - - 30.6
01/06:30am 4.0 -1.8 2.2 88 0.7 W 22 32 12 17 - - 30.4
01/06:00am 3.7 -2.6 1.6 86 0.8 W 24 44 13 24 - - 30.0
01/05:30am 4.1 -1.4 1.6 84 1.0 W 20 26 11 14 - - 29.0
01/05:00am 3.9 -1.4 2.1 88 0.7 W 19 28 10 15 - - 28.2
01/04:30am 4.0 -1.9 2.0 87 0.8 WSW 22 35 12 19 - - 27.6
01/04:00am 3.4 -1.2 1.8 89 0.6 W 15 19 8 10 - - 26.6
01/03:30am 2.7 -3.2 1.4 91 0.5 WSW 22 28 12 15 - - 25.6
01/03:00am 2.0 -3.2 0.4 89 0.6 WSW 17 30 9 16 - - 24.4
01/02:30am 3.9 -0.8 1.1 82 1.1 WSW 15 26 8 14 - - 23.4
01/02:04am 3.8 -3.4 1.0 82 1.1 W 28 52 15 28 - - 23.4
01/02:00am 3.8 -3.3 1.2 83 1.0 W 28 39 15 21 - - 23.4
01/01:30am 3.9 -3.5 1.8 86 0.8 WNW 30 50 16 27 - - 23.4
01/01:09am 3.3 -3.8 1.3 87 0.8 W 28 46 15 25 - - 23.2
01/01:00am 2.6 -5.3 0.8 88 0.7 WNW 32 46 17 25 - - 23.0
01/12:52am 3.4 -5.1 1.0 84 0.9 WSW 35 46 19 25 - - 22.6
01/12:30am 4.3 -5.1 -0.1 73 1.7 WNW 39 52 21 28 - - 22.2
01/12:00am 3.8 -5.6 0.1 77 1.4 W 39 52 21 28 - - 22.2
 
Date/Time
EST
Temp
°C
App
Temp
°C
Dew
Point
Rel
Hum
%
Delta-T
°C
Wind Press
QNH
hPa
Press
MSL
hPa
Rain
since 9 am
mm
Dir
 
Spd
km/h
Gust
km/h
Spd
kts
Gust
kts
30/11:30pm 3.6 -5.7 0.7 81 1.1 W 39 48 21 26 - - 22.2
30/11:00pm 3.9 -5.8 0.6 79 1.3 W 41 56 22 30 - - 22.2
30/10:35pm 4.3 -5.1 -0.1 73 1.7 W 39 57 21 31 - - 22.2
30/10:30pm 4.3 -5.5 -0.1 73 1.7 W 41 54 22 29 - - 22.2
30/10:03pm 4.2 -5.1 0.9 79 1.3 W 39 57 21 31 - - 22.2
30/10:00pm 3.8 -5.8 1.4 84 1.0 W 41 57 22 31 - - 22.2
30/09:30pm 4.3 -4.2 1.2 80 1.2 W 35 52 19 28 - - 22.2
30/09:16pm 3.9 -3.5 1.6 85 0.9 W 30 54 16 29 - - 22.2
30/09:00pm 3.8 -4.0 1.8 87 0.8 WNW 32 46 17 25 - - 21.8
30/08:53pm 4.2 -2.8 1.9 85 0.9 W 28 46 15 25 - - 21.6
30/08:30pm 3.9 -3.5 2.1 88 0.7 W 30 41 16 22 - - 21.6
30/08:00pm 4.4 -3.6 1.4 81 1.2 W 33 52 18 28 - - 21.0
30/07:38pm 4.1 -3.6 2.3 88 0.7 W 32 54 17 29 - - 21.0
30/07:30pm 3.9 -3.8 2.4 90 0.6 W 32 44 17 24 - - 21.0
30/07:12pm 3.3 -3.6 2.3 93 0.4 W 28 46 15 25 - - 20.8
30/07:00pm 3.4 -3.5 2.8 96 0.2 W 28 37 15 20 - - 20.4
30/06:30pm 3.4 -1.9 3.0 97 0.2 N 20 28 11 15 - - 19.4
30/06:00pm 3.3 -2.5 2.1 92 0.5 WNW 22 24 12 13 - - 19.2
30/05:30pm 3.2 -3.7 2.3 94 0.4 W 28 41 15 22 - - 18.4
30/05:13pm 3.8 -3.8 3.1 95 0.3 W 32 50 17 27 - - 17.0
30/05:00pm 4.1 -3.1 2.9 92 0.5 W 30 44 16 24 - - 15.8
30/04:42pm 4.5 -3.2 3.6 94 0.4 W 33 54 18 29 - - 14.6
30/04:30pm 4.6 -3.4 3.9 95 0.3 WNW 35 44 19 24 - - 13.4
30/04:00pm 5.0 -2.4 4.1 94 0.4 WNW 32 43 17 23 - - 12.0
30/03:52pm 5.3 -2.6 4.1 92 0.5 W 35 54 19 29 - - 11.6
30/03:32pm 6.2 -1.8 5.8 97 0.2 NW 37 56 20 30 - - 11.4
30/03:30pm 6.0 -2.8 5.4 96 0.3 WNW 41 56 22 30 - - 11.4
30/03:21pm 5.9 -1.5 5.2 95 0.3 NW 33 54 18 29 - - 11.2
30/03:11pm 6.4 0.2 6.0 97 0.2 NW 28 39 15 21 - - 11.2
30/03:00pm 6.3 2.2 6.0 98 0.1 NNW 17 20 9 11 - - 10.8
30/02:30pm 5.9 0.7 5.5 97 0.2 NW 22 32 12 17 - - 10.6
30/02:00pm 5.8 1.5 5.4 97 0.2 NW 17 20 9 11 - - 10.0
30/01:30pm 5.9 1.6 5.3 96 0.3 WNW 17 22 9 12 - - 9.6
30/01:00pm 5.6 0.8 4.7 94 0.4 WNW 19 28 10 15 - - 8.8
30/12:30pm 5.7 -2.2 4.3 91 0.6 W 35 50 19 27 - - 7.8
30/12:00pm 6.3 -1.4 5.3 93 0.5 W 35 50 19 27 - - 6.8
30/11:44am 6.6 -1.8 5.4 92 0.5 W 39 57 21 31 - - 6.4
30/11:43am 6.7 -1.3 5.7 93 0.5 W 37 52 20 28 - - 6.4
30/11:30am 7.8 2.3 7.5 98 0.1 NW 26 32 14 17 - - 6.2
30/11:00am 8.0 2.1 7.7 98 0.1 NW 28 35 15 19 - - 6.0
30/10:30am 7.8 1.1 7.5 98 0.1 NW 32 41 17 22 - - 5.6
30/10:00am 7.7 0.8 7.1 96 0.3 WNW 33 46 18 25 - - 5.2
30/09:47am 8.0 0.0 7.4 96 0.3 WNW 39 44 21 24 - - 4.6
30/09:37am 8.2 -3.6 7.6 96 0.3 WNW 59 80 32 43 - - 4.0
30/09:35am 8.3 -5.3 7.7 96 0.3 WNW 69 80 37 43 - - 3.8
30/09:33am 8.6 -0.5 8.5 99 0.0 NNW 46 69 25 37 - - 3.8
30/09:30am 8.9 0.3 8.8 99 0.0 NNW 44 57 24 31 - - 3.2
30/09:00am 8.9 0.2 8.6 98 0.1 NNW 44 54 24 29 - - 6.2
30/08:39am 8.8 -1.8 8.4 97 0.2 NNW 54 82 29 44 - - 4.6
30/08:30am 8.8 -1.8 8.4 97 0.2 NNW 54 67 29 36 - - 4.0
30/08:10am 8.9 -2.2 7.8 93 0.5 NNW 56 78 30 42 - - 2.0
30/08:00am 9.3 -1.8 7.9 91 0.7 NNW 56 70 30 38 - - 1.4
30/07:31am 10.3 -2.7 7.2 81 1.5 NNW 65 83 35 45 - - 1.0
30/07:30am 10.3 -3.1 7.2 81 1.5 NNW 67 83 36 45 - - 1.0
30/07:05am 10.5 -2.7 6.5 76 1.9 NNW 65 83 35 45 - - 1.0
30/07:00am 10.5 -2.3 6.6 77 1.9 NNW 63 80 34 43 - - 1.0
30/06:31am 10.3 -2.4 6.8 79 1.7 NNW 63 89 34 48 - - 1.0
30/06:30am 10.3 -2.4 6.8 79 1.7 NNW 63 74 34 40 - - 1.0
30/06:11am 10.2 -0.9 6.5 78 1.8 NNW 54 72 29 39 - - 1.0
30/06:00am 10.1 -0.9 6.8 80 1.6 NNW 54 70 29 38 - - 1.0
30/05:30am 9.8 -1.7 6.9 82 1.4 NNW 57 78 31 42 - - 1.0
30/05:00am 9.4 -2.8 7.2 86 1.1 NNW 61 80 33 43 - - 1.0
30/04:38am 9.3 -3.3 7.1 86 1.1 NNW 63 87 34 47 - - 1.0
30/04:30am 9.5 -3.2 6.9 84 1.2 NNW 63 80 34 43 - - 1.0
30/04:00am 9.4 -3.0 6.7 83 1.3 NNW 61 72 33 39 - - 1.0
30/03:30am 9.2 -3.6 6.3 82 1.4 NNW 63 87 34 47 - - 1.0
30/03:00am 9.1 -4.5 6.0 81 1.5 NNW 67 85 36 46 - - 1.0
30/02:30am 9.1 -4.1 6.2 82 1.4 NNW 65 85 35 46 - - 1.0
30/02:00am 9.0 -3.8 6.3 83 1.3 NNW 63 96 34 52 - - 1.0
30/01:30am 8.9 -4.9 7.2 89 0.8 NNW 69 109 37 59 - - 1.0
30/01:00am 8.8 -5.9 7.4 91 0.7 NNW 74 98 40 53 - - 1.0
30/12:42am 8.7 -7.1 7.2 90 0.7 NNW 80 104 43 56 - - 1.0
30/12:41am 8.8 -8.4 7.3 90 0.7 NNW 87 104 47 56 - - 1.0
30/12:40am 8.7 -4.3 7.3 91 0.7 NNW 65 104 35 56 - - 1.0
30/12:30am 8.4 -3.8 7.2 92 0.6 NNW 61 85 33 46 - - 1.0
30/12:00am 8.5 -5.7 7.6 94 0.4 NW 72 96 39 52 - - 0.8
 
Date/Time
EST
Temp
°C
App
Temp
°C
Dew
Point
Rel
Hum
%
Delta-T
°C
Wind Press
QNH
hPa
Press
MSL
hPa
Rain
since 9 am
mm
Dir
 
Spd
km/h
Gust
km/h
Spd
kts
Gust
kts
29/11:54pm 8.4 -4.1 7.6 95 0.4 NNW 63 96 34 52 - - 0.8
29/11:42pm 8.4 -2.0 7.8 96 0.3 NNW 52 70 28 38 - - 0.8
29/11:30pm 8.4 -1.6 7.8 96 0.3 NNW 50 65 27 35 - - 0.8
29/11:05pm 8.7 -2.7 7.6 93 0.5 NW 57 76 31 41 - - 0.2
29/11:00pm 8.7 -4.2 7.6 93 0.5 NNW 65 78 35 42 - - 0.2
29/10:47pm 8.8 -2.7 7.3 90 0.7 NNW 57 80 31 43 - - 0.2
29/10:46pm 8.8 -2.5 7.3 90 0.7 NNW 56 67 30 36 - - 0.2
29/10:30pm 9.2 -6.4 6.6 84 1.2 NNW 78 106 42 57 - - 0.2
29/10:20pm 9.2 -8.1 6.6 84 1.2 NW 87 106 47 57 - - 0.2
29/10:18pm 9.0 -8.2 7.0 87 1.0 NNW 87 96 47 52 - - 0.2
29/10:00pm 9.2 -3.8 7.0 86 1.1 NNW 65 91 35 49 - - 0.2
29/09:30pm 9.7 -4.9 6.2 79 1.7 NNW 72 104 39 56 - - 0.2
29/09:00pm 9.5 -3.0 6.0 79 1.6 NW 61 87 33 47 - - 0.2
29/08:30pm 9.5 -4.7 6.0 79 1.6 NNW 70 91 38 49 - - 0.2
29/08:00pm 9.0 -4.7 5.9 81 1.5 NNW 67 89 36 48 - - 0.2
29/07:30pm 9.4 -2.8 5.4 76 1.9 NNW 59 83 32 45 - - 0.2
29/07:00pm 8.9 -2.7 5.6 80 1.5 NNW 56 78 30 42 - - 0.2
29/06:52pm 8.8 -1.3 5.9 82 1.4 NNW 48 70 26 38 - - 0.2
29/06:49pm 8.8 -0.9 5.9 82 1.4 NNW 46 54 25 29 - - 0.2

Other Formats:

Comma delimited format used in spreadsheet applications
http://www.bom.gov.au/fwo/IDT60801/IDT60801.95958.axf

JavaScript Object Notation format (JSON) in row-major order
http://www.bom.gov.au/fwo/IDT60801/IDT60801.95958.json